Time;durP1;ratioP1;P1;durP2;ratioP2;P2;SDS_P1;SDS_P2;PMS_P1;PMS_P2;Temp;Humidity;BMP_temperature;BMP_pressure;BME280_temperature;BME280_humidity;BME280_pressure;Samples;Min_cycle;Max_cycle;Signal;HPM_P1;HPM_P2
2022/09/27 00:00:51;;;;;;;5.18;2.22;;;;;;;;;;6273485;22;20290;-76
2022/09/27 00:03:18;;;;;;;5.32;2.15;;;;;;;;;;6273038;22;20102;-76
2022/09/27 00:05:45;;;;;;;6.35;2.53;;;;;;;;;;6271272;22;20020;-75
2022/09/27 00:08:19;;;;;;;6.22;2.67;;;;;;;;;;6272779;22;20099;-75
2022/09/27 00:10:46;;;;;;;4.72;2.20;;;;;;;;;;6271614;22;20452;-76
2022/09/27 00:13:20;;;;;;;3.65;1.98;;;;;;;;;;6247222;22;20053;-76
2022/09/27 00:16:10;;;;;;;3.03;2.28;;;;;;;;;;6271840;22;20034;-76
2022/09/27 00:18:44;;;;;;;4.70;2.33;;;;;;;;;;6270314;22;20030;-75
2022/09/27 00:21:12;;;;;;;6.43;2.25;;;;;;;;;;6270826;22;20378;-76
2022/09/27 00:23:39;;;;;;;6.43;2.20;;;;;;;;;;6270210;22;20102;-76
2022/09/27 00:26:13;;;;;;;4.90;2.88;;;;;;;;;;6270960;22;20061;-76
2022/09/27 00:28:40;;;;;;;2.70;1.77;;;;;;;;;;6270783;22;20479;-76
2022/09/27 00:31:19;;;;;;;4.60;2.20;;;;;;;;;;6245771;22;20016;-75
2022/09/27 00:33:48;;;;;;;4.38;2.08;;;;;;;;;;6243966;22;20024;-76
2022/09/27 00:36:24;;;;;;;5.65;1.95;;;;;;;;;;6270089;22;20019;-76
2022/09/27 00:38:52;;;;;;;3.17;2.38;;;;;;;;;;6270305;22;20107;-76
2022/09/27 00:41:23;;;;;;;7.85;2.03;;;;;;;;;;6270119;22;20023;-76
2022/09/27 00:43:58;;;;;;;4.82;2.05;;;;;;;;;;6270542;22;20030;-76
2022/09/27 00:46:29;;;;;;;3.03;2.05;;;;;;;;;;6270394;22;20098;-76
2022/09/27 00:49:06;;;;;;;3.80;2.10;;;;;;;;;;6269311;22;20050;-76
2022/09/27 00:51:34;;;;;;;7.32;2.33;;;;;;;;;;6271231;22;20685;-76
2022/09/27 00:54:09;;;;;;;2.78;1.85;;;;;;;;;;6269038;22;20030;-76
2022/09/27 00:56:37;;;;;;;4.15;1.92;;;;;;;;;;6270459;22;20465;-76
2022/09/27 00:59:15;;;;;;;2.58;1.83;;;;;;;;;;6269767;22;20034;-76
2022/09/27 01:01:43;;;;;;;5.00;2.63;;;;;;;;;;6270269;22;20487;-76
2022/09/27 01:04:22;;;;;;;2.72;1.80;;;;;;;;;;6269753;22;20031;-76
2022/09/27 01:06:50;;;;;;;3.38;1.75;;;;;;;;;;6219165;22;20034;-76
2022/09/27 01:09:24;;;;;;;5.03;2.55;;;;;;;;;;6269258;22;20103;-76
2022/09/27 01:12:06;;;;;;;3.20;1.70;;;;;;;;;;6271402;22;20019;-76
2022/09/27 01:14:45;;;;;;;4.18;2.17;;;;;;;;;;6270612;22;20024;-76
2022/09/27 01:17:31;;;;;;;3.28;1.90;;;;;;;;;;6270326;22;20016;-76
2022/09/27 01:20:14;;;;;;;2.60;1.90;;;;;;;;;;6270504;22;20406;-76
2022/09/27 01:23:07;;;;;;;4.25;1.98;;;;;;;;;;6270367;22;20019;-75
2022/09/27 01:25:53;;;;;;;3.33;1.60;;;;;;;;;;6269321;22;20400;-76
2022/09/27 01:28:32;;;;;;;2.75;1.95;;;;;;;;;;6269224;22;20019;-76
2022/09/27 01:31:05;;;;;;;3.05;1.55;;;;;;;;;;6269195;22;20019;-76
2022/09/27 01:33:39;;;;;;;8.60;2.15;;;;;;;;;;6269510;22;20354;-75
2022/09/27 01:36:09;;;;;;;2.72;1.95;;;;;;;;;;6270351;22;20023;-76
2022/09/27 01:38:42;;;;;;;3.28;1.90;;;;;;;;;;6273905;22;20028;-76
2022/09/27 01:41:17;;;;;;;4.30;1.80;;;;;;;;;;6270595;22;20433;-75
2022/09/27 01:43:54;;;;;;;3.38;1.70;;;;;;;;;;6270396;22;20026;-76
2022/09/27 01:46:25;;;;;;;3.28;1.80;;;;;;;;;;6270174;22;20427;-76
2022/09/27 01:49:00;;;;;;;3.38;1.77;;;;;;;;;;6270512;22;20059;-75
2022/09/27 01:51:35;;;;;;;5.38;2.10;;;;;;;;;;6270248;22;20037;-75
2022/09/27 01:54:10;;;;;;;3.03;2.10;;;;;;;;;;6269250;22;20135;-76
2022/09/27 01:56:52;;;;;;;5.22;2.13;;;;;;;;;;6271057;22;20349;-75
2022/09/27 01:59:29;;;;;;;3.53;1.70;;;;;;;;;;6271010;22;20106;-76
2022/09/27 02:01:58;;;;;;;2.88;1.92;;;;;;;;;;6269356;22;20826;-76
2022/09/27 02:04:33;;;;;;;5.78;2.88;;;;;;;;;;6266139;22;20560;-76
2022/09/27 02:07:22;;;;;;;5.57;2.20;;;;;;;;;;6270853;22;20020;-75
2022/09/27 02:10:02;;;;;;;4.75;1.70;;;;;;;;;;6270741;22;20461;-76
2022/09/27 02:12:35;;;;;;;4.07;2.08;;;;;;;;;;6244917;22;20046;-76
2022/09/27 02:15:17;;;;;;;4.00;2.00;;;;;;;;;;6270715;22;20103;-76
2022/09/27 02:17:59;;;;;;;4.78;1.83;;;;;;;;;;6270874;22;20106;-75
2022/09/27 02:20:35;;;;;;;3.72;1.70;;;;;;;;;;6271769;22;20102;-76
2022/09/27 02:23:25;;;;;;;3.15;1.73;;;;;;;;;;6271817;22;20059;-76
2022/09/27 02:26:22;;;;;;;3.97;2.00;;;;;;;;;;6271505;22;20045;-76
2022/09/27 02:29:10;;;;;;;3.25;1.90;;;;;;;;;;6253061;22;20490;-76
2022/09/27 02:31:44;;;;;;;3.85;1.90;;;;;;;;;;6245874;22;20103;-76
2022/09/27 02:34:14;;;;;;;3.10;1.90;;;;;;;;;;6272155;22;20023;-76
2022/09/27 02:36:42;;;;;;;4.07;2.05;;;;;;;;;;6270828;22;20260;-75
2022/09/27 02:39:17;;;;;;;6.13;2.30;;;;;;;;;;6271812;22;20020;-76
2022/09/27 02:41:44;;;;;;;2.72;1.88;;;;;;;;;;6271162;22;20024;-75
2022/09/27 02:44:20;;;;;;;2.28;1.80;;;;;;;;;;6270939;22;20034;-75
2022/09/27 02:46:58;;;;;;;2.03;1.60;;;;;;;;;;6272861;22;20094;-75
2022/09/27 02:49:48;;;;;;;2.72;1.90;;;;;;;;;;6270941;22;20107;-75
2022/09/27 02:52:25;;;;;;;2.15;1.73;;;;;;;;;;6272944;22;20030;-75
2022/09/27 02:55:11;;;;;;;2.70;1.83;;;;;;;;;;6271358;22;20265;-75
2022/09/27 02:57:57;;;;;;;3.83;2.10;;;;;;;;;;6270776;22;20110;-76
2022/09/27 03:00:41;;;;;;;2.33;1.73;;;;;;;;;;6271120;22;20504;-76
2022/09/27 03:03:13;;;;;;;7.13;2.17;;;;;;;;;;6271757;22;20024;-76
2022/09/27 03:06:06;;;;;;;5.00;2.53;;;;;;;;;;6272236;22;20019;-76
2022/09/27 03:08:34;;;;;;;4.43;1.80;;;;;;;;;;6267094;22;20099;-76
2022/09/27 03:11:07;;;;;;;3.78;1.88;;;;;;;;;;6271951;22;20540;-76
2022/09/27 03:13:37;;;;;;;2.38;1.95;;;;;;;;;;6271381;22;20409;-75
2022/09/27 03:16:38;;;;;;;5.45;2.10;;;;;;;;;;6269555;22;20023;-76
2022/09/27 03:19:12;;;;;;;6.55;2.33;;;;;;;;;;6272234;22;20551;-76
2022/09/27 03:21:46;;;;;;;3.78;1.92;;;;;;;;;;6270649;22;20062;-78
2022/09/27 03:24:13;;;;;;;5.25;2.42;;;;;;;;;;6271364;22;20344;-76
2022/09/27 03:26:41;;;;;;;1.75;1.40;;;;;;;;;;6271145;22;20020;-75
2022/09/27 03:29:15;;;;;;;5.60;2.13;;;;;;;;;;6270329;22;20026;-76
2022/09/27 03:31:42;;;;;;;8.55;2.20;;;;;;;;;;6271593;22;20032;-76
2022/09/27 03:34:16;;;;;;;4.00;2.15;;;;;;;;;;6271707;22;20087;-76
2022/09/27 03:36:44;;;;;;;3.10;2.13;;;;;;;;;;6271921;22;20103;-75
2022/09/27 03:39:11;;;;;;;4.88;2.08;;;;;;;;;;6270767;22;20263;-76
2022/09/27 03:41:46;;;;;;;3.97;1.85;;;;;;;;;;6272336;22;20024;-75
2022/09/27 03:44:13;;;;;;;4.43;2.20;;;;;;;;;;6272152;22;20408;-76
2022/09/27 03:46:47;;;;;;;4.40;2.15;;;;;;;;;;6271824;22;20054;-76
2022/09/27 03:49:14;;;;;;;4.47;1.85;;;;;;;;;;6272512;22;20107;-76
2022/09/27 03:51:41;;;;;;;2.33;1.85;;;;;;;;;;6271864;22;20673;-76
2022/09/27 03:54:15;;;;;;;3.60;2.00;;;;;;;;;;6271131;22;20020;-76
2022/09/27 03:56:42;;;;;;;5.05;2.05;;;;;;;;;;6271849;22;20036;-76
2022/09/27 03:59:16;;;;;;;3.05;1.80;;;;;;;;;;6271999;22;20040;-76
2022/09/27 04:01:44;;;;;;;2.40;1.92;;;;;;;;;;6271598;22;20026;-76
2022/09/27 04:04:11;;;;;;;7.18;1.77;;;;;;;;;;6271238;22;20021;-76
2022/09/27 04:06:45;;;;;;;5.28;2.10;;;;;;;;;;6271611;22;20098;-76
2022/09/27 04:09:12;;;;;;;2.83;1.70;;;;;;;;;;6271739;22;20034;-76
2022/09/27 04:11:47;;;;;;;3.67;1.83;;;;;;;;;;6272420;22;20023;-76
2022/09/27 04:14:29;;;;;;;2.67;2.00;;;;;;;;;;6271162;22;20092;-76
2022/09/27 04:17:10;;;;;;;8.15;1.70;;;;;;;;;;6271520;22;20016;-76
2022/09/27 04:19:38;;;;;;;4.78;2.03;;;;;;;;;;6271851;22;20031;-76
2022/09/27 04:22:12;;;;;;;3.10;1.70;;;;;;;;;;6271266;22;20106;-76
2022/09/27 04:24:39;;;;;;;3.63;1.90;;;;;;;;;;6269431;22;20322;-76
2022/09/27 04:27:07;;;;;;;4.40;1.83;;;;;;;;;;6270837;22;20024;-76
2022/09/27 04:29:44;;;;;;;2.95;1.52;;;;;;;;;;6270533;22;20103;-76
2022/09/27 04:32:12;;;;;;;4.28;2.13;;;;;;;;;;6270353;22;20055;-75
2022/09/27 04:37:31;;;;;;;2.13;1.58;;;;;;;;;;6269275;22;20023;-75
2022/09/27 04:39:58;;;;;;;;;;;;;;;;;;6270488;22;20054;-76
2022/09/27 04:42:32;;;;;;;4.78;2.30;;;;;;;;;;6270374;22;19933;-75
2022/09/27 04:44:59;;;;;;;;;;;;;;;;;;6272305;22;20028;-76
2022/09/27 04:47:27;;;;;;;4.82;1.92;;;;;;;;;;6271786;22;20006;-76
2022/09/27 04:50:01;;;;;;;2.53;1.50;;;;;;;;;;6272056;22;20019;-76
2022/09/27 04:52:28;;;;;;;4.57;2.60;;;;;;;;;;6271661;22;20098;-75
2022/09/27 04:55:02;;;;;;;2.25;1.45;;;;;;;;;;6271607;22;20070;-76
2022/09/27 04:57:29;;;;;;;3.67;2.15;;;;;;;;;;6270273;22;20103;-76
2022/09/27 04:59:59;;;;;;;3.00;1.60;;;;;;;;;;6271396;22;20020;-75
2022/09/27 05:02:33;;;;;;;2.13;1.48;;;;;;;;;;6270891;22;20299;-75
2022/09/27 05:05:00;;;;;;;1.85;1.50;;;;;;;;;;6270790;22;20028;-75
2022/09/27 05:07:34;;;;;;;4.32;2.40;;;;;;;;;;6270829;22;20016;-76
2022/09/27 05:10:01;;;;;;;1.83;1.63;;;;;;;;;;6271053;22;20024;-76
2022/09/27 05:12:28;;;;;;;7.18;1.80;;;;;;;;;;6270518;22;20111;-75
2022/09/27 05:15:02;;;;;;;5.20;1.92;;;;;;;;;;6271548;22;20297;-75
2022/09/27 05:17:36;;;;;;;;;;;;;;;;;;6271667;22;20102;-76
2022/09/27 05:20:10;;;;;;;2.85;1.98;;;;;;;;;;6271934;22;19918;-75
2022/09/27 05:22:39;;;;;;;3.75;1.67;;;;;;;;;;6271729;22;20022;-75
2022/09/27 05:25:06;;;;;;;4.88;2.20;;;;;;;;;;6271274;22;20023;-75
2022/09/27 05:27:40;;;;;;;4.95;1.83;;;;;;;;;;6271556;22;20050;-76
2022/09/27 05:30:07;;;;;;;4.75;2.22;;;;;;;;;;6270115;22;20030;-75
2022/09/27 05:32:46;;;;;;;4.72;1.85;;;;;;;;;;6272668;22;20022;-76
2022/09/27 05:35:14;;;;;;;5.90;2.40;;;;;;;;;;6272313;22;20028;-76
2022/09/27 05:37:52;;;;;;;3.70;2.30;;;;;;;;;;6272107;22;20019;-76
2022/09/27 05:40:23;;;;;;;2.20;2.00;;;;;;;;;;6271646;22;20020;-75
2022/09/27 05:43:12;;;;;;;4.35;2.17;;;;;;;;;;6270569;22;20419;-76
2022/09/27 05:45:40;;;;;;;4.50;2.75;;;;;;;;;;6271721;22;20019;-75
2022/09/27 05:48:13;;;;;;;4.65;2.30;;;;;;;;;;6271457;22;20034;-75
2022/09/27 05:50:41;;;;;;;3.30;1.75;;;;;;;;;;6244044;22;20015;-76
2022/09/27 05:53:09;;;;;;;4.65;1.58;;;;;;;;;;6271791;22;20135;-76
2022/09/27 05:55:42;;;;;;;5.72;2.17;;;;;;;;;;6271508;22;20103;-76
2022/09/27 05:58:10;;;;;;;4.53;2.28;;;;;;;;;;6271313;22;20431;-76
2022/09/27 06:00:44;;;;;;;2.45;1.90;;;;;;;;;;6270829;22;20059;-76
2022/09/27 06:03:13;;;;;;;3.22;2.30;;;;;;;;;;6271339;22;20110;-76
2022/09/27 06:05:40;;;;;;;4.32;2.40;;;;;;;;;;6244282;22;20067;-76
2022/09/27 06:08:19;;;;;;;7.17;2.00;;;;;;;;;;6271826;22;20023;-76
2022/09/27 06:10:46;;;;;;;5.50;2.63;;;;;;;;;;6270453;22;20479;-76
2022/09/27 06:13:20;;;;;;;3.55;2.67;;;;;;;;;;6271071;22;20049;-76
2022/09/27 06:16:00;;;;;;;3.78;2.25;;;;;;;;;;6271184;22;20024;-76
2022/09/27 06:18:34;;;;;;;7.03;2.40;;;;;;;;;;6270406;22;20098;-75
2022/09/27 06:21:02;;;;;;;3.38;2.10;;;;;;;;;;6271064;22;20020;-76
2022/09/27 06:23:32;;;;;;;4.15;2.70;;;;;;;;;;6272044;22;20026;-77
2022/09/27 06:26:06;;;;;;;9.15;2.60;;;;;;;;;;6271557;22;20111;-74
2022/09/27 06:28:34;;;;;;;;;;;;;;;;;;6272234;22;20028;-76
2022/09/27 06:31:01;;;;;;;7.18;2.67;;;;;;;;;;6272992;22;20321;-76
2022/09/27 06:33:35;;;;;;;5.78;2.50;;;;;;;;;;6270585;22;20398;-76
2022/09/27 06:36:03;;;;;;;5.90;2.40;;;;;;;;;;6272143;22;20085;-75
2022/09/27 06:38:38;;;;;;;3.97;2.58;;;;;;;;;;6271009;22;20053;-76
2022/09/27 06:41:05;;;;;;;;;;;;;;;;;;6272190;22;20058;-76
2022/09/27 06:43:33;;;;;;;4.00;2.42;;;;;;;;;;6270472;22;20416;-76
2022/09/27 06:46:06;;;;;;;2.88;2.42;;;;;;;;;;6272752;22;20095;-76
2022/09/27 06:48:38;;;;;;;5.97;3.03;;;;;;;;;;6270616;22;20019;-76
2022/09/27 06:51:11;;;;;;;4.75;2.72;;;;;;;;;;6271789;22;20023;-76
2022/09/27 06:53:38;;;;;;;4.60;2.45;;;;;;;;;;6244473;22;20124;-76
2022/09/27 06:56:05;;;;;;;2.97;2.33;;;;;;;;;;6273990;22;20081;-76
2022/09/27 07:01:28;;;;;;;6.32;2.78;;;;;;;;;;6273346;22;20024;-76
2022/09/27 07:04:02;;;;;;;3.97;2.63;;;;;;;;;;6273694;22;20023;-75
2022/09/27 07:06:30;;;;;;;10.38;3.22;;;;;;;;;;6271898;22;20488;-76
2022/09/27 07:09:05;;;;;;;4.32;2.38;;;;;;;;;;6274015;22;20376;-76
2022/09/27 07:11:35;;;;;;;4.43;2.38;;;;;;;;;;6273574;22;20103;-76
2022/09/27 07:14:03;;;;;;;4.30;2.25;;;;;;;;;;6271578;22;20020;-76
2022/09/27 07:16:45;;;;;;;6.35;2.60;;;;;;;;;;6272422;22;20062;-76
2022/09/27 07:19:13;;;;;;;4.32;2.40;;;;;;;;;;6271852;22;20070;-77
2022/09/27 07:21:47;;;;;;;5.95;2.88;;;;;;;;;;6273371;22;20083;-76
2022/09/27 07:24:14;;;;;;;6.47;2.80;;;;;;;;;;6272897;22;20055;-75
2022/09/27 07:26:41;;;;;;;7.55;2.53;;;;;;;;;;6273261;22;20023;-76
2022/09/27 07:29:15;;;;;;;5.63;2.60;;;;;;;;;;6271247;22;20051;-76
2022/09/27 07:31:42;;;;;;;3.70;2.42;;;;;;;;;;6272881;22;20523;-76
2022/09/27 07:34:17;;;;;;;5.50;2.53;;;;;;;;;;6273455;22;20019;-76
2022/09/27 07:36:44;;;;;;;5.88;2.25;;;;;;;;;;6273530;22;20027;-76
2022/09/27 07:39:12;;;;;;;4.55;2.20;;;;;;;;;;6271944;22;20469;-76
2022/09/27 07:41:45;;;;;;;10.48;2.38;;;;;;;;;;6272399;22;20030;-76
2022/09/27 07:44:15;;;;;;;4.93;2.60;;;;;;;;;;6272977;22;20103;-76
2022/09/27 07:46:48;;;;;;;4.78;2.30;;;;;;;;;;6272774;22;20407;-76
2022/09/27 07:49:15;;;;;;;6.22;2.28;;;;;;;;;;6272541;22;20055;-77
2022/09/27 07:51:43;;;;;;;6.45;2.80;;;;;;;;;;6273721;22;20078;-76
2022/09/27 07:54:16;;;;;;;3.92;2.08;;;;;;;;;;6272586;22;20051;-76
2022/09/27 07:56:47;;;;;;;5.70;2.97;;;;;;;;;;6272194;22;20548;-76
2022/09/27 07:59:20;;;;;;;9.40;2.50;;;;;;;;;;6273134;22;20094;-76
2022/09/27 08:01:47;;;;;;;4.05;2.17;;;;;;;;;;6273858;22;20405;-77
2022/09/27 08:04:15;;;;;;;9.20;2.40;;;;;;;;;;6272865;22;20384;-76
2022/09/27 08:06:48;;;;;;;6.60;2.35;;;;;;;;;;6272804;22;20029;-76
2022/09/27 08:09:15;;;;;;;4.22;2.42;;;;;;;;;;6273147;22;20522;-75
2022/09/27 08:11:50;;;;;;;4.13;2.40;;;;;;;;;;6272564;22;20034;-76
2022/09/27 08:14:17;;;;;;;6.93;2.60;;;;;;;;;;6272054;22;20020;-76
2022/09/27 08:16:44;;;;;;;4.20;2.50;;;;;;;;;;6271066;22;20130;-76
2022/09/27 08:19:25;;;;;;;4.50;2.60;;;;;;;;;;6272138;22;20027;-77
2022/09/27 08:21:55;;;;;;;6.93;2.35;;;;;;;;;;6271824;22;20099;-77
2022/09/27 08:24:31;;;;;;;5.57;2.15;;;;;;;;;;6272206;22;20027;-76
2022/09/27 08:26:59;;;;;;;4.05;2.47;;;;;;;;;;6271808;22;20020;-76
2022/09/27 08:29:26;;;;;;;6.00;2.65;;;;;;;;;;6271616;22;20094;-76
2022/09/27 08:32:00;;;;;;;4.10;2.53;;;;;;;;;;6269156;22;20535;-76
2022/09/27 08:34:28;;;;;;;4.65;2.30;;;;;;;;;;6269553;22;20502;-77
2022/09/27 08:37:03;;;;;;;5.70;2.92;;;;;;;;;;6272081;22;20291;-76
2022/09/27 08:39:30;;;;;;;8.20;2.47;;;;;;;;;;6244527;22;20120;-76
2022/09/27 08:41:57;;;;;;;;;;;;;;;;;;6272257;22;20639;-77
2022/09/27 08:44:43;;;;;;;3.92;2.30;;;;;;;;;;6271446;22;20021;-76
2022/09/27 08:47:34;;;;;;;6.78;3.10;;;;;;;;;;6272708;22;20071;-76
2022/09/27 08:50:25;;;;;;;9.07;2.65;;;;;;;;;;6271236;22;20027;-77
2022/09/27 08:52:56;;;;;;;4.28;2.15;;;;;;;;;;6245285;22;20023;-76
2022/09/27 08:55:35;;;;;;;4.77;2.60;;;;;;;;;;6270995;22;20402;-77
2022/09/27 08:58:09;;;;;;;5.03;2.83;;;;;;;;;;6271340;22;20020;-76
2022/09/27 09:00:43;;;;;;;7.05;2.42;;;;;;;;;;6272452;22;20089;-76
2022/09/27 09:03:17;;;;;;;7.90;2.40;;;;;;;;;;6270131;22;20396;-76
2022/09/27 09:06:00;;;;;;;3.50;2.53;;;;;;;;;;6270797;22;20348;-76
2022/09/27 09:08:34;;;;;;;6.28;2.85;;;;;;;;;;6272221;22;20115;-76
2022/09/27 09:14:20;;;;;;;4.50;2.42;;;;;;;;;;6270369;22;20591;-76
2022/09/27 09:17:01;;;;;;;4.43;2.65;;;;;;;;;;6271390;22;20023;-77
2022/09/27 09:19:55;;;;;;;6.40;2.40;;;;;;;;;;6271228;22;20102;-77
2022/09/27 09:22:29;;;;;;;6.65;3.30;;;;;;;;;;6200769;22;20019;-76
2022/09/27 09:24:59;;;;;;;7.78;2.55;;;;;;;;;;6270747;22;20098;-76
2022/09/27 09:27:45;;;;;;;6.60;2.47;;;;;;;;;;6271527;22;20107;-76
2022/09/27 09:30:28;;;;;;;10.73;3.25;;;;;;;;;;6271475;22;20099;-77
2022/09/27 09:33:14;;;;;;;5.70;2.83;;;;;;;;;;6271210;22;20034;-77
2022/09/27 09:35:54;;;;;;;5.10;2.72;;;;;;;;;;6271943;22;20090;-76
2022/09/27 09:38:24;;;;;;;6.07;2.80;;;;;;;;;;6272554;22;20080;-76
2022/09/27 09:41:18;;;;;;;4.47;2.60;;;;;;;;;;6271266;22;20062;-77
2022/09/27 09:43:48;;;;;;;5.43;2.40;;;;;;;;;;6271618;22;20096;-77
2022/09/27 09:46:34;;;;;;;4.43;2.67;;;;;;;;;;6271486;22;20102;-77
2022/09/27 09:49:06;;;;;;;4.30;2.60;;;;;;;;;;6270763;22;20026;-76
2022/09/27 09:51:46;;;;;;;6.95;2.63;;;;;;;;;;6271357;22;20100;-76
2022/09/27 09:54:23;;;;;;;2.83;2.50;;;;;;;;;;6271068;22;20099;-77
2022/09/27 09:57:06;;;;;;;8.52;3.17;;;;;;;;;;6272765;22;20098;-76
2022/09/27 09:59:37;;;;;;;5.55;2.50;;;;;;;;;;6271868;22;20318;-77
2022/09/27 10:02:30;;;;;;;8.95;2.97;;;;;;;;;;6271665;22;20026;-76
2022/09/27 10:04:57;;;;;;;10.20;3.45;;;;;;;;;;6272343;22;20020;-77
2022/09/27 10:07:36;;;;;;;9.65;2.75;;;;;;;;;;6271103;22;20058;-77
2022/09/27 10:10:04;;;;;;;5.50;2.88;;;;;;;;;;6270352;22;20098;-77
2022/09/27 10:12:38;;;;;;;4.22;2.90;;;;;;;;;;6271349;22;20062;-77
2022/09/27 10:15:06;;;;;;;4.82;2.83;;;;;;;;;;6270707;22;20019;-76
2022/09/27 10:17:41;;;;;;;12.50;3.17;;;;;;;;;;6269925;22;20536;-77
2022/09/27 10:20:21;;;;;;;7.50;2.80;;;;;;;;;;6270829;22;20020;-77
2022/09/27 10:22:59;;;;;;;6.65;3.30;;;;;;;;;;6271250;22;20102;-77
2022/09/27 10:25:44;;;;;;;10.38;3.13;;;;;;;;;;6270027;22;20095;-77
2022/09/27 10:28:33;;;;;;;4.80;3.08;;;;;;;;;;6270487;22;20035;-77
2022/09/27 10:31:02;;;;;;;5.15;3.00;;;;;;;;;;6273056;22;20095;-77
2022/09/27 10:33:37;;;;;;;6.60;3.47;;;;;;;;;;6246543;22;20070;-77
2022/09/27 10:36:20;;;;;;;6.50;3.45;;;;;;;;;;6273370;22;20024;-77
2022/09/27 10:38:55;;;;;;;8.23;3.30;;;;;;;;;;6272612;22;20023;-77
2022/09/27 10:41:25;;;;;;;7.95;3.50;;;;;;;;;;6271820;22;20091;-77
2022/09/27 10:43:52;;;;;;;5.97;3.03;;;;;;;;;;6272566;22;20476;-76
2022/09/27 10:46:28;;;;;;;7.30;3.30;;;;;;;;;;6272889;22;20087;-77
2022/09/27 10:49:14;;;;;;;6.95;3.42;;;;;;;;;;6272579;22;20023;-77
2022/09/27 10:51:53;;;;;;;6.68;3.33;;;;;;;;;;6272916;22;20082;-78
2022/09/27 10:54:26;;;;;;;5.60;3.50;;;;;;;;;;6271748;22;20051;-77
2022/09/27 10:57:05;;;;;;;6.72;3.22;;;;;;;;;;6273550;22;20068;-77
2022/09/27 10:59:39;;;;;;;6.07;3.70;;;;;;;;;;6272203;22;20024;-77
2022/09/27 11:02:21;;;;;;;6.88;3.42;;;;;;;;;;6246541;22;20030;-77
2022/09/27 11:05:11;;;;;;;9.38;3.30;;;;;;;;;;6272958;22;20099;-78
2022/09/27 11:07:53;;;;;;;6.00;3.03;;;;;;;;;;6272707;22;20035;-77
2022/09/27 11:10:30;;;;;;;7.03;3.20;;;;;;;;;;6272128;22;20091;-77
2022/09/27 11:13:13;;;;;;;7.03;3.65;;;;;;;;;;6273934;22;20070;-77
2022/09/27 11:15:52;;;;;;;6.57;3.10;;;;;;;;;;6273120;22;20482;-77
2022/09/27 11:18:34;;;;;;;5.55;2.80;;;;;;;;;;6273494;22;20364;-77
2022/09/27 11:21:11;;;;;;;5.45;2.88;;;;;;;;;;6273665;22;20055;-77
2022/09/27 11:23:39;;;;;;;7.45;3.00;;;;;;;;;;6272728;22;20225;-76
2022/09/27 11:26:14;;;;;;;6.65;2.97;;;;;;;;;;6272585;22;20469;-77
2022/09/27 11:29:00;;;;;;;11.00;3.88;;;;;;;;;;6273701;22;20027;-77
2022/09/27 11:31:38;;;;;;;6.28;2.75;;;;;;;;;;6272221;22;20062;-77
2022/09/27 11:34:32;;;;;;;8.57;3.00;;;;;;;;;;6273057;22;20027;-77
2022/09/27 11:37:31;;;;;;;6.22;2.90;;;;;;;;;;6273665;22;20054;-76
2022/09/27 11:40:31;;;;;;;5.97;3.05;;;;;;;;;;6272378;22;20024;-77
2022/09/27 11:43:25;;;;;;;4.95;3.17;;;;;;;;;;6222719;22;20550;-77
2022/09/27 11:45:56;;;;;;;4.90;2.90;;;;;;;;;;6273408;22;20031;-77
2022/09/27 11:48:54;;;;;;;4.50;3.10;;;;;;;;;;6270461;22;20026;-77
2022/09/27 11:51:26;;;;;;;6.25;3.13;;;;;;;;;;6272403;22;20110;-76
2022/09/27 11:54:06;;;;;;;7.05;2.90;;;;;;;;;;6272195;22;20099;-77
2022/09/27 11:56:54;;;;;;;5.40;2.60;;;;;;;;;;6272483;22;20022;-77
2022/09/27 11:59:28;;;;;;;7.65;3.10;;;;;;;;;;6230922;22;20519;-77
2022/09/27 12:01:59;;;;;;;6.32;3.28;;;;;;;;;;6272891;22;20058;-77
2022/09/27 12:04:34;;;;;;;5.20;3.45;;;;;;;;;;6272469;22;20027;-77
2022/09/27 12:07:14;;;;;;;8.63;3.50;;;;;;;;;;6247660;22;20536;-77
2022/09/27 12:09:48;;;;;;;8.55;3.60;;;;;;;;;;6271163;22;20026;-77
2022/09/27 12:12:23;;;;;;;6.55;3.15;;;;;;;;;;6271613;22;20023;-76
2022/09/27 12:14:56;;;;;;;5.90;3.40;;;;;;;;;;6272253;22;20592;-76
2022/09/27 12:17:49;;;;;;;8.95;3.63;;;;;;;;;;6270919;22;20400;-75
2022/09/27 12:20:20;;;;;;;13.20;4.13;;;;;;;;;;6271541;22;20019;-76
2022/09/27 12:23:01;;;;;;;6.93;4.10;;;;;;;;;;6270409;22;20356;-75
2022/09/27 12:25:30;;;;;;;8.05;3.88;;;;;;;;;;6270899;22;20023;-76
2022/09/27 12:28:35;;;;;;;8.13;4.30;;;;;;;;;;6271777;22;20098;-76
2022/09/27 12:31:07;;;;;;;7.70;4.30;;;;;;;;;;6241005;22;20094;-76
2022/09/27 12:34:15;;;;;;;11.40;4.40;;;;;;;;;;6271499;22;20122;-76
2022/09/27 12:36:52;;;;;;;9.98;4.05;;;;;;;;;;6272562;22;20102;-76
2022/09/27 12:39:33;;;;;;;5.47;3.50;;;;;;;;;;6271492;22;20020;-76
2022/09/27 12:42:12;;;;;;;7.53;3.78;;;;;;;;;;6272213;22;20055;-76
2022/09/27 12:44:47;;;;;;;7.15;3.35;;;;;;;;;;6271178;22;20024;-76
2022/09/27 12:47:23;;;;;;;6.85;2.67;;;;;;;;;;6271023;22;20023;-76
2022/09/27 12:50:15;;;;;;;6.20;3.30;;;;;;;;;;6270176;22;20026;-76
2022/09/27 12:52:51;;;;;;;3.97;2.65;;;;;;;;;;6270852;22;20130;-76
2022/09/27 12:55:22;;;;;;;3.58;2.85;;;;;;;;;;6270584;22;20015;-76
2022/09/27 12:58:15;;;;;;;5.13;2.90;;;;;;;;;;6272291;22;20055;-76
2022/09/27 13:00:46;;;;;;;4.78;2.40;;;;;;;;;;6271384;22;20094;-76
2022/09/27 13:03:42;;;;;;;4.85;1.92;;;;;;;;;;6271982;22;20059;-76
2022/09/27 13:06:15;;;;;;;4.47;2.40;;;;;;;;;;6271159;22;20043;-76
2022/09/27 13:08:55;;;;;;;2.72;2.22;;;;;;;;;;6271734;22;20098;-76
2022/09/27 13:11:22;;;;;;;5.20;2.50;;;;;;;;;;6270664;22;20024;-76
2022/09/27 13:13:57;;;;;;;5.22;2.42;;;;;;;;;;6270482;22;20059;-76
2022/09/27 13:16:28;;;;;;;3.50;2.15;;;;;;;;;;6270078;22;20055;-77
2022/09/27 13:19:34;;;;;;;3.47;1.95;;;;;;;;;;6270799;22;20639;-76
2022/09/27 13:22:21;;;;;;;3.40;2.17;;;;;;;;;;6270456;22;20098;-76
2022/09/27 13:24:55;;;;;;;3.70;2.38;;;;;;;;;;6270709;22;20544;-76
2022/09/27 13:27:22;;;;;;;2.03;1.80;;;;;;;;;;6271565;22;20051;-76
2022/09/27 13:30:08;;;;;;;2.95;1.60;;;;;;;;;;6270974;22;20094;-76
2022/09/27 13:32:35;;;;;;;2.15;1.73;;;;;;;;;;6271587;22;20115;-77
2022/09/27 13:35:11;;;;;;;5.65;1.98;;;;;;;;;;6271364;22;20203;-76
2022/09/27 13:37:57;;;;;;;3.75;1.80;;;;;;;;;;6271232;22;20027;-76
2022/09/27 13:40:32;;;;;;;2.92;1.92;;;;;;;;;;6245548;22;20035;-77
2022/09/27 13:43:09;;;;;;;3.13;1.70;;;;;;;;;;6271226;22;20019;-77
2022/09/27 13:45:51;;;;;;;2.53;1.83;;;;;;;;;;6271391;22;20050;-77
2022/09/27 13:48:20;;;;;;;3.47;1.75;;;;;;;;;;6272209;22;20015;-77
2022/09/27 13:51:08;;;;;;;2.95;2.25;;;;;;;;;;6271688;22;20099;-77
2022/09/27 13:53:39;;;;;;;2.42;1.70;;;;;;;;;;6269742;22;20355;-76
2022/09/27 13:56:32;;;;;;;2.85;1.60;;;;;;;;;;6270386;22;20102;-77
2022/09/27 13:59:00;;;;;;;2.80;2.10;;;;;;;;;;6271274;22;20016;-76
2022/09/27 14:01:54;;;;;;;3.30;1.70;;;;;;;;;;6271453;22;20102;-77
2022/09/27 14:04:25;;;;;;;3.03;2.00;;;;;;;;;;6271017;22;20031;-77
2022/09/27 14:07:00;;;;;;;4.55;1.77;;;;;;;;;;6273233;22;20081;-77
2022/09/27 14:09:32;;;;;;;3.88;1.75;;;;;;;;;;6273562;22;20034;-77
2022/09/27 14:12:09;;;;;;;5.85;1.80;;;;;;;;;;6272875;22;20062;-77
2022/09/27 14:14:38;;;;;;;3.30;2.00;;;;;;;;;;6273010;22;20034;-77
2022/09/27 14:17:25;;;;;;;6.53;2.17;;;;;;;;;;6271960;22;20023;-77
2022/09/27 14:20:02;;;;;;;5.93;1.90;;;;;;;;;;6272949;22;20020;-77
2022/09/27 14:22:30;;;;;;;3.10;2.20;;;;;;;;;;6273264;22;20102;-77
2022/09/27 14:24:57;;;;;;;4.13;2.20;;;;;;;;;;6244121;22;20126;-77
2022/09/27 14:27:36;;;;;;;3.47;1.77;;;;;;;;;;6272363;22;20126;-77
2022/09/27 14:30:10;;;;;;;4.63;2.30;;;;;;;;;;6272422;22;20028;-77
2022/09/27 14:32:48;;;;;;;2.67;2.00;;;;;;;;;;6273853;22;20349;-77
2022/09/27 14:38:19;;;;;;;3.35;2.30;;;;;;;;;;6275305;22;20055;-77
2022/09/27 14:41:06;;;;;;;3.90;2.30;;;;;;;;;;6273417;22;20648;-77
2022/09/27 14:43:42;;;;;;;4.43;2.20;;;;;;;;;;6272757;22;20098;-77
2022/09/27 14:46:22;;;;;;;4.40;2.63;;;;;;;;;;6272899;22;20102;-77
2022/09/27 14:48:58;;;;;;;12.88;5.85;;;;;;;;;;6273246;22;20107;-77
2022/09/27 14:51:32;;;;;;;4.05;2.50;;;;;;;;;;6246361;22;20364;-77
2022/09/27 14:54:10;;;;;;;5.05;2.30;;;;;;;;;;6272801;22;20098;-77
2022/09/27 14:56:37;;;;;;;5.20;2.38;;;;;;;;;;6272048;22;20111;-77
2022/09/27 14:59:15;;;;;;;4.50;2.90;;;;;;;;;;6272118;22;20194;-78
2022/09/27 15:01:52;;;;;;;2.60;2.08;;;;;;;;;;6271952;22;20126;-77
2022/09/27 15:04:27;;;;;;;4.60;2.30;;;;;;;;;;6272381;22;20095;-78
2022/09/27 15:06:55;;;;;;;5.82;2.80;;;;;;;;;;6272157;22;20051;-77
2022/09/27 15:09:28;;;;;;;2.40;2.20;;;;;;;;;;6273152;22;20016;-77
2022/09/27 15:12:00;;;;;;;7.18;3.45;;;;;;;;;;6271836;22;20150;-77
2022/09/27 15:14:28;;;;;;;3.47;2.35;;;;;;;;;;6272143;22;20099;-77
2022/09/27 15:17:24;;;;;;;4.38;2.63;;;;;;;;;;6271939;22;20461;-77
2022/09/27 15:20:01;;;;;;;6.05;3.00;;;;;;;;;;6271142;22;20102;-77
2022/09/27 15:22:35;;;;;;;;;;;;;;;;;;6273659;22;20454;-77
2022/09/27 15:25:11;;;;;;;4.65;2.10;;;;;;;;;;6271791;22;19965;-77
2022/09/27 15:27:47;;;;;;;3.67;2.15;;;;;;;;;;6272109;22;20093;-77
2022/09/27 15:30:25;;;;;;;3.05;2.28;;;;;;;;;;6272063;22;20043;-77
2022/09/27 15:32:58;;;;;;;4.15;2.22;;;;;;;;;;6273615;22;20095;-77
2022/09/27 15:35:28;;;;;;;4.53;2.70;;;;;;;;;;6244299;22;20046;-77
2022/09/27 15:38:11;;;;;;;4.90;2.33;;;;;;;;;;6272746;22;20023;-76
2022/09/27 15:40:44;;;;;;;;;;;;;;;;;;6272943;22;20098;-77
2022/09/27 15:43:20;;;;;;;6.38;2.90;;;;;;;;;;6272021;22;19946;-77
2022/09/27 15:45:54;;;;;;;3.20;2.58;;;;;;;;;;6272600;22;20059;-76